createdAt,value
2023-03-27T00:00:17.031Z,17.48
2023-03-27T00:02:47.569Z,22.65
2023-03-27T00:05:16.502Z,19.70
2023-03-27T00:07:45.791Z,21.33
2023-03-27T00:10:13.697Z,18.35
2023-03-27T00:12:41.692Z,14.23
2023-03-27T00:15:16.187Z,17.90
2023-03-27T00:17:46.951Z,17.15
2023-03-27T00:20:15.853Z,17.88
2023-03-27T00:22:45.258Z,19.80
2023-03-27T00:25:13.363Z,12.88
2023-03-27T00:27:43.621Z,15.90
2023-03-27T00:30:12.771Z,10.52
2023-03-27T00:32:40.920Z,16.40
2023-03-27T00:35:09.884Z,10.40
2023-03-27T00:37:38.060Z,12.05
2023-03-27T00:40:13.743Z,13.07
2023-03-27T00:42:41.836Z,10.97
2023-03-27T00:45:17.956Z,15.90
2023-03-27T00:47:48.439Z,15.90
2023-03-27T00:50:21.682Z,13.57
2023-03-27T00:52:54.404Z,12.85
2023-03-27T00:55:27.091Z,11.82
2023-03-27T00:58:00.414Z,12.68
2023-03-27T01:00:28.970Z,15.50
2023-03-27T01:02:57.087Z,15.13
2023-03-27T01:05:29.782Z,15.23
2023-03-27T01:08:01.001Z,13.70
2023-03-27T01:10:44.048Z,13.88
2023-03-27T01:13:25.460Z,12.93
2023-03-27T01:15:59.127Z,12.70
2023-03-27T01:18:42.442Z,11.27
2023-03-27T01:21:38.832Z,20.60
2023-03-27T01:24:41.588Z,13.00
2023-03-27T01:27:18.732Z,15.23
2023-03-27T01:30:04.350Z,16.35
2023-03-27T01:33:21.877Z,15.68
2023-03-27T01:36:22.746Z,11.80
2023-03-27T01:39:16.965Z,12.93
2023-03-27T01:41:52.350Z,7.72
2023-03-27T01:44:43.323Z,8.98
2023-03-27T01:47:22.648Z,16.77
2023-03-27T01:49:55.929Z,14.80
2023-03-27T01:52:29.543Z,9.07
2023-03-27T01:55:05.373Z,12.02
2023-03-27T01:57:49.300Z,7.35
2023-03-27T02:00:22.760Z,9.73
2023-03-27T02:02:54.577Z,9.40
2023-03-27T02:05:27.418Z,9.70
2023-03-27T02:08:00.336Z,9.15
2023-03-27T02:10:34.311Z,11.88
2023-03-27T02:13:14.855Z,10.63
2023-03-27T02:15:45.805Z,9.15
2023-03-27T02:18:19.401Z,10.98
2023-03-27T02:20:47.705Z,9.65
2023-03-27T02:23:15.656Z,11.18
2023-03-27T02:25:47.012Z,9.93
2023-03-27T02:28:36.844Z,8.30
2023-03-27T02:31:32.660Z,8.73
2023-03-27T02:34:21.979Z,14.32
2023-03-27T02:37:16.485Z,12.23
2023-03-27T02:40:14.748Z,11.70
2023-03-27T02:42:58.473Z,7.57
2023-03-27T02:45:36.682Z,10.38
2023-03-27T02:48:09.811Z,6.15
2023-03-27T02:50:42.767Z,10.95
2023-03-27T02:53:16.524Z,13.40
2023-03-27T02:55:48.249Z,9.27
2023-03-27T02:58:23.787Z,8.40
2023-03-27T03:01:13.839Z,9.50
2023-03-27T03:04:08.854Z,8.98
2023-03-27T03:06:56.407Z,11.20
2023-03-27T03:09:25.560Z,8.98
2023-03-27T03:11:54.407Z,6.93
2023-03-27T03:14:28.669Z,14.25
2023-03-27T03:16:56.574Z,9.90
2023-03-27T03:19:24.377Z,7.53
2023-03-27T03:21:52.511Z,10.25
2023-03-27T03:24:22.554Z,6.70
2023-03-27T03:26:50.595Z,13.07
2023-03-27T03:29:19.734Z,9.48
2023-03-27T03:32:11.786Z,7.82
2023-03-27T03:34:41.955Z,16.48
2023-03-27T03:37:10.852Z,8.98
2023-03-27T03:39:38.708Z,9.90
2023-03-27T03:42:06.732Z,13.32
2023-03-27T03:44:37.462Z,11.65
2023-03-27T03:47:17.462Z,13.80
2023-03-27T03:49:45.494Z,6.80
2023-03-27T03:52:13.485Z,8.73
2023-03-27T03:54:41.351Z,10.05
2023-03-27T03:57:09.123Z,9.90
2023-03-27T03:59:37.210Z,9.75
2023-03-27T04:02:31.902Z,11.63
2023-03-27T04:05:10.698Z,11.05
2023-03-27T04:07:40.584Z,11.32
2023-03-27T04:10:31.332Z,11.52
2023-03-27T04:13:01.570Z,11.65
2023-03-27T04:15:32.628Z,7.68
2023-03-27T04:18:11.182Z,8.57
2023-03-27T04:20:41.345Z,7.22
2023-03-27T04:23:12.307Z,8.52
2023-03-27T04:25:41.356Z,8.50
2023-03-27T04:28:16.553Z,9.85
2023-03-27T04:30:50.604Z,11.38
2023-03-27T04:33:46.738Z,8.73
2023-03-27T04:36:14.993Z,12.23
2023-03-27T04:38:51.417Z,9.00
2023-03-27T04:41:21.401Z,10.70
2023-03-27T04:43:50.216Z,10.55
2023-03-27T04:46:18.196Z,11.23
2023-03-27T04:48:52.945Z,6.97
2023-03-27T04:51:42.043Z,8.70
2023-03-27T04:54:12.006Z,8.88
2023-03-27T04:56:45.885Z,10.05
2023-03-27T04:59:13.821Z,9.30
2023-03-27T05:01:42.018Z,12.45
2023-03-27T05:04:34.618Z,15.15
2023-03-27T05:07:12.510Z,12.13
2023-03-27T05:09:40.429Z,13.00
2023-03-27T05:12:09.665Z,10.50
2023-03-27T05:14:48.696Z,10.80
2023-03-27T05:17:32.931Z,9.75
2023-03-27T05:20:03.768Z,10.25
2023-03-27T05:22:34.991Z,11.27
2023-03-27T05:27:45.876Z,9.35
2023-03-27T05:30:15.504Z,12.00
2023-03-27T05:32:48.575Z,10.70
2023-03-27T05:35:28.505Z,10.50
2023-03-27T05:37:59.182Z,7.53
2023-03-27T05:40:33.005Z,10.00
2023-03-27T05:43:02.608Z,9.98
2023-03-27T05:45:32.786Z,8.70
2023-03-27T05:48:03.748Z,12.35
2023-03-27T05:50:38.249Z,13.55
2023-03-27T05:53:14.238Z,9.32
2023-03-27T05:55:50.977Z,6.82
2023-03-27T05:58:41.851Z,8.98
2023-03-27T06:01:11.372Z,17.33
2023-03-27T06:03:39.726Z,8.90
2023-03-27T06:06:17.134Z,12.55
2023-03-27T06:08:46.723Z,12.73
2023-03-27T06:11:17.803Z,13.18
2023-03-27T06:13:46.974Z,15.88
2023-03-27T06:16:27.751Z,14.10
2023-03-27T06:19:23.847Z,13.32
2023-03-27T06:21:54.547Z,13.90
2023-03-27T06:24:22.600Z,13.07
2023-03-27T06:26:51.437Z,13.75
2023-03-27T06:29:21.492Z,11.43
2023-03-27T06:31:52.967Z,11.30
2023-03-27T06:34:27.134Z,12.23
2023-03-27T06:37:03.812Z,10.73
2023-03-27T06:39:37.648Z,10.50
2023-03-27T06:42:05.794Z,12.00
2023-03-27T06:44:36.073Z,11.50
2023-03-27T06:47:19.449Z,15.07
2023-03-27T06:49:59.280Z,12.65
2023-03-27T06:52:28.544Z,14.10
2023-03-27T06:55:08.757Z,18.80
2023-03-27T06:57:52.356Z,12.65
2023-03-27T07:00:24.483Z,13.18
2023-03-27T07:03:12.020Z,12.48
2023-03-27T07:06:06.490Z,10.40
2023-03-27T07:08:56.387Z,10.68
2023-03-27T07:11:24.246Z,15.27
2023-03-27T07:13:58.747Z,10.80
2023-03-27T07:16:28.490Z,14.73
2023-03-27T07:19:00.197Z,17.75
2023-03-27T07:21:30.038Z,18.95
2023-03-27T07:24:01.577Z,16.08
2023-03-27T07:26:37.963Z,15.23
2023-03-27T07:29:22.613Z,12.57
2023-03-27T07:31:57.851Z,11.32
2023-03-27T07:34:50.775Z,11.63
2023-03-27T07:37:57.899Z,9.23
2023-03-27T07:40:47.304Z,9.30
2023-03-27T07:43:30.342Z,9.50
2023-03-27T07:45:59.957Z,12.95
2023-03-27T07:48:28.881Z,11.50
2023-03-27T07:53:33.374Z,11.40
2023-03-27T07:56:18.907Z,8.20
2023-03-27T07:58:49.336Z,9.88
2023-03-27T08:01:21.749Z,9.05
2023-03-27T08:03:50.390Z,9.77
2023-03-27T08:06:20.389Z,9.93
2023-03-27T08:08:48.340Z,9.15
2023-03-27T08:11:29.574Z,14.27
2023-03-27T08:13:58.689Z,11.82
2023-03-27T08:16:30.228Z,10.35
2023-03-27T08:19:02.355Z,12.65
2023-03-27T08:21:32.196Z,16.60
2023-03-27T08:24:01.428Z,15.07
2023-03-27T08:26:30.840Z,9.65
2023-03-27T08:29:02.243Z,15.52
2023-03-27T08:31:31.906Z,11.05
2023-03-27T08:34:02.019Z,19.50
2023-03-27T08:36:40.428Z,11.98
2023-03-27T08:39:08.539Z,10.23
2023-03-27T08:41:52.610Z,15.23
2023-03-27T08:44:30.486Z,12.40
2023-03-27T08:47:03.238Z,11.70
2023-03-27T08:49:38.425Z,13.77
2023-03-27T08:52:22.151Z,11.35
2023-03-27T08:54:58.397Z,19.00
2023-03-27T08:57:37.555Z,10.68
2023-03-27T09:00:22.798Z,13.35
2023-03-27T09:03:05.277Z,11.32
2023-03-27T09:08:10.598Z,11.82
2023-03-27T09:10:44.630Z,13.55
2023-03-27T09:13:33.831Z,8.95
2023-03-27T09:16:05.014Z,10.85
2023-03-27T09:18:36.575Z,12.10
2023-03-27T09:21:14.992Z,12.05
2023-03-27T09:23:45.593Z,7.95
2023-03-27T09:26:20.298Z,8.35
2023-03-27T09:29:25.785Z,10.75
2023-03-27T09:32:04.176Z,12.70
2023-03-27T09:34:33.637Z,14.57
2023-03-27T09:37:02.783Z,8.25
2023-03-27T09:39:34.095Z,6.20
2023-03-27T09:42:20.352Z,6.38
2023-03-27T09:44:56.561Z,7.90
2023-03-27T09:47:32.625Z,6.75
2023-03-27T09:50:21.435Z,6.20
2023-03-27T09:53:10.767Z,7.13
2023-03-27T09:55:53.189Z,8.75
2023-03-27T09:58:35.825Z,7.50
2023-03-27T10:01:14.228Z,6.20
2023-03-27T10:03:49.448Z,6.25
2023-03-27T10:06:26.522Z,8.02
2023-03-27T10:09:20.069Z,4.65
2023-03-27T10:11:51.191Z,4.72
2023-03-27T10:14:26.463Z,4.05
2023-03-27T10:16:57.210Z,3.17
2023-03-27T10:19:29.669Z,3.90
2023-03-27T10:22:04.662Z,2.47
2023-03-27T10:24:34.468Z,2.78
2023-03-27T10:27:43.827Z,3.88
2023-03-27T10:30:32.379Z,3.20
2023-03-27T10:33:32.255Z,1.80
2023-03-27T10:36:18.851Z,2.38
2023-03-27T10:38:54.167Z,1.27
2023-03-27T10:41:37.134Z,1.83
2023-03-27T10:44:14.249Z,2.60
2023-03-27T10:46:46.489Z,1.67
2023-03-27T10:49:26.124Z,0.95
2023-03-27T10:52:03.532Z,1.30
2023-03-27T10:54:59.008Z,2.50
2023-03-27T10:57:34.366Z,1.77
2023-03-27T11:00:11.998Z,2.00
2023-03-27T11:02:53.461Z,1.35
2023-03-27T11:05:26.483Z,1.75
2023-03-27T11:08:02.947Z,0.63
2023-03-27T11:10:35.166Z,2.42
2023-03-27T11:13:10.290Z,2.03
2023-03-27T11:15:43.161Z,1.92
2023-03-27T11:18:37.413Z,2.60
2023-03-27T11:21:13.181Z,1.70
2023-03-27T11:23:58.876Z,5.43
2023-03-27T11:26:42.495Z,0.88
2023-03-27T11:29:20.692Z,1.65
2023-03-27T11:31:54.236Z,1.63
2023-03-27T11:34:53.184Z,1.95
2023-03-27T11:37:47.099Z,2.42
2023-03-27T11:40:20.522Z,2.53
2023-03-27T11:42:56.134Z,0.98
2023-03-27T11:45:27.401Z,4.30
2023-03-27T11:48:24.956Z,1.05
2023-03-27T11:50:59.636Z,3.97
2023-03-27T11:53:57.269Z,1.23
2023-03-27T11:56:56.355Z,4.60
2023-03-27T12:00:18.401Z,2.03
2023-03-27T12:03:24.425Z,1.83
2023-03-27T12:06:07.085Z,1.17
2023-03-27T12:09:06.601Z,3.75
2023-03-27T12:11:50.993Z,0.88
2023-03-27T12:14:46.526Z,4.30
2023-03-27T12:17:54.684Z,1.58
2023-03-27T12:20:53.824Z,1.70
2023-03-27T12:23:45.220Z,3.00
2023-03-27T12:26:58.946Z,2.10
2023-03-27T12:29:59.851Z,2.83
2023-03-27T12:33:07.682Z,1.60
2023-03-27T12:35:41.717Z,2.80
2023-03-27T12:38:20.947Z,2.08
2023-03-27T12:41:00.805Z,3.03
2023-03-27T12:43:39.959Z,2.13
2023-03-27T12:46:36.616Z,1.23
2023-03-27T12:49:47.427Z,1.58
2023-03-27T12:52:26.984Z,0.60
2023-03-27T12:55:21.264Z,1.65
2023-03-27T12:57:59.347Z,3.13
2023-03-27T13:00:59.021Z,2.50
2023-03-27T13:04:05.821Z,4.10
2023-03-27T13:06:46.558Z,0.70
2023-03-27T13:09:28.534Z,2.05
2023-03-27T13:12:20.738Z,3.67
2023-03-27T13:15:06.966Z,1.55
2023-03-27T13:18:01.850Z,1.08
2023-03-27T13:20:46.182Z,2.08
2023-03-27T13:23:32.391Z,3.22
2023-03-27T13:26:11.451Z,1.77
2023-03-27T13:28:48.730Z,1.75
2023-03-27T13:31:49.355Z,3.13
2023-03-27T13:34:42.270Z,1.35
2023-03-27T13:38:01.272Z,3.30
2023-03-27T13:40:53.953Z,1.92
2023-03-27T13:43:28.664Z,1.77
2023-03-27T13:46:19.450Z,1.33
2023-03-27T13:49:33.398Z,2.70
2023-03-27T13:52:43.112Z,3.10
2023-03-27T13:55:31.426Z,1.52
2023-03-27T13:58:34.745Z,1.35
2023-03-27T14:01:12.481Z,1.55
2023-03-27T14:04:29.874Z,4.30
2023-03-27T14:07:34.669Z,3.15
2023-03-27T14:10:40.593Z,1.00
2023-03-27T14:13:39.688Z,2.08
2023-03-27T14:16:41.718Z,3.70
2023-03-27T14:19:34.041Z,0.47
2023-03-27T14:22:07.621Z,2.92
2023-03-27T14:24:50.399Z,0.82
2023-03-27T14:27:34.825Z,0.93
2023-03-27T14:30:09.278Z,0.77
2023-03-27T14:35:29.473Z,0.73
2023-03-27T14:38:07.929Z,1.73
2023-03-27T14:40:47.701Z,0.75
2023-03-27T14:43:22.247Z,2.85
2023-03-27T14:45:57.842Z,1.00
2023-03-27T14:48:29.168Z,0.68
2023-03-27T14:51:02.217Z,1.65
2023-03-27T14:53:37.327Z,1.55
2023-03-27T14:56:13.079Z,5.90
2023-03-27T14:59:01.153Z,2.17
2023-03-27T15:01:42.245Z,1.65
2023-03-27T15:04:12.187Z,1.27
2023-03-27T15:06:42.571Z,0.68
2023-03-27T15:09:15.998Z,0.65
2023-03-27T15:12:24.356Z,1.45
2023-03-27T15:14:56.059Z,3.40
2023-03-27T15:17:24.593Z,0.90
2023-03-27T15:19:55.661Z,1.65
2023-03-27T15:22:30.319Z,0.93
2023-03-27T15:25:03.224Z,0.85
2023-03-27T15:27:34.518Z,3.47
2023-03-27T15:30:08.251Z,0.57
2023-03-27T15:32:42.806Z,3.35
2023-03-27T15:35:15.420Z,2.20
2023-03-27T15:37:43.520Z,0.63
2023-03-27T15:40:41.855Z,0.10
2023-03-27T15:43:24.772Z,1.77
2023-03-27T15:46:02.944Z,1.20
2023-03-27T15:48:33.205Z,3.08
2023-03-27T15:51:03.329Z,1.15
2023-03-27T15:53:37.353Z,1.88
2023-03-27T15:56:14.544Z,1.40
2023-03-27T15:58:48.799Z,2.92
2023-03-27T16:01:21.765Z,0.55
2023-03-27T16:03:51.686Z,0.20
2023-03-27T16:06:31.155Z,1.23
2023-03-27T16:09:01.180Z,1.20
2023-03-27T16:11:43.224Z,1.20
2023-03-27T16:14:26.937Z,0.63
2023-03-27T16:17:11.251Z,3.42
2023-03-27T16:19:44.062Z,0.88
2023-03-27T16:22:13.569Z,1.27
2023-03-27T16:24:41.714Z,2.95
2023-03-27T16:27:11.722Z,0.68
2023-03-27T16:29:39.658Z,0.30
2023-03-27T16:32:13.409Z,1.55
2023-03-27T16:34:41.855Z,0.57
2023-03-27T16:37:10.245Z,0.00
2023-03-27T16:39:38.389Z,0.17
2023-03-27T16:42:06.263Z,1.35
2023-03-27T16:44:34.621Z,1.20
2023-03-27T16:47:02.994Z,1.35
2023-03-27T16:49:32.518Z,0.75
2023-03-27T16:52:00.640Z,0.68
2023-03-27T16:54:28.788Z,1.17
2023-03-27T16:56:56.735Z,0.08
2023-03-27T16:59:25.346Z,0.75
2023-03-27T17:01:53.465Z,1.65
2023-03-27T17:04:22.247Z,0.98
2023-03-27T17:06:51.856Z,0.20
2023-03-27T17:09:19.836Z,1.35
2023-03-27T17:11:47.828Z,2.97
2023-03-27T17:14:16.544Z,0.50
2023-03-27T17:16:44.941Z,1.17
2023-03-27T17:19:15.863Z,2.15
2023-03-27T17:21:44.016Z,0.20
2023-03-27T17:24:14.780Z,0.77
2023-03-27T17:26:42.858Z,1.40
2023-03-27T17:29:11.615Z,0.20
2023-03-27T17:31:39.698Z,0.57
2023-03-27T17:34:08.100Z,0.30
2023-03-27T17:36:44.977Z,0.88
2023-03-27T17:39:19.077Z,2.05
2023-03-27T17:41:47.038Z,1.90
2023-03-27T17:44:15.092Z,2.40
2023-03-27T17:46:43.124Z,1.00
2023-03-27T17:49:11.338Z,1.58
2023-03-27T17:51:39.283Z,0.63
2023-03-27T17:54:07.227Z,0.88
2023-03-27T17:56:41.669Z,1.33
2023-03-27T17:59:10.408Z,3.47
2023-03-27T18:01:38.269Z,4.10
2023-03-27T18:04:06.440Z,1.50
2023-03-27T18:06:34.291Z,3.65
2023-03-27T18:09:02.247Z,1.10
2023-03-27T18:11:30.048Z,1.48
2023-03-27T18:13:59.449Z,2.65
2023-03-27T18:16:27.333Z,3.47
2023-03-27T18:18:55.830Z,14.52
2023-03-27T18:21:26.196Z,6.43
2023-03-27T18:23:59.598Z,2.92
2023-03-27T18:26:28.093Z,1.23
2023-03-27T18:29:05.111Z,0.73
2023-03-27T18:31:33.165Z,1.88
2023-03-27T18:34:01.353Z,0.77
2023-03-27T18:36:29.364Z,1.45
2023-03-27T18:38:57.400Z,0.90
2023-03-27T18:41:25.525Z,0.88
2023-03-27T18:43:53.459Z,2.53
2023-03-27T18:46:23.069Z,1.13
2023-03-27T18:49:24.906Z,0.93
2023-03-27T18:51:54.009Z,2.60
2023-03-27T18:54:21.844Z,2.22
2023-03-27T18:56:49.912Z,1.63
2023-03-27T18:59:18.260Z,1.50
2023-03-27T19:01:49.491Z,1.65
2023-03-27T19:04:19.130Z,1.85
2023-03-27T19:06:47.097Z,2.17
2023-03-27T19:09:15.220Z,1.10
2023-03-27T19:11:44.793Z,0.93
2023-03-27T19:14:34.037Z,1.00
2023-03-27T19:17:30.917Z,0.40
2023-03-27T19:20:12.272Z,0.50
2023-03-27T19:22:50.380Z,1.40
2023-03-27T19:25:48.167Z,0.93
2023-03-27T19:28:16.735Z,1.33
2023-03-27T19:30:44.747Z,0.90
2023-03-27T19:33:14.350Z,0.82
2023-03-27T19:35:42.139Z,1.48
2023-03-27T19:38:10.078Z,1.75
2023-03-27T19:40:38.091Z,0.57
2023-03-27T19:43:06.733Z,0.85
2023-03-27T19:45:34.749Z,0.77
2023-03-27T19:48:02.830Z,0.68
2023-03-27T19:50:33.379Z,0.65
2023-03-27T19:53:10.558Z,1.65
2023-03-27T19:55:38.872Z,0.47
2023-03-27T19:58:07.722Z,0.30
2023-03-27T20:00:40.490Z,0.20
2023-03-27T20:03:10.649Z,0.57
2023-03-27T20:05:41.481Z,0.88
2023-03-27T20:08:09.515Z,0.50
2023-03-27T20:10:37.625Z,0.65
2023-03-27T20:13:05.535Z,1.85
2023-03-27T20:15:35.030Z,1.48
2023-03-27T20:18:04.900Z,0.50
2023-03-27T20:20:33.540Z,0.95
2023-03-27T20:23:04.509Z,1.08
2023-03-27T20:25:34.489Z,2.65
2023-03-27T20:28:04.976Z,0.50
2023-03-27T20:30:36.775Z,1.02
2023-03-27T20:33:05.122Z,0.73
2023-03-27T20:35:34.071Z,1.35
2023-03-27T20:38:05.971Z,0.95
2023-03-27T20:40:53.803Z,0.40
2023-03-27T20:43:27.518Z,1.15
2023-03-27T20:46:01.097Z,0.63
2023-03-27T20:48:42.042Z,0.32
2023-03-27T20:51:14.965Z,1.23
2023-03-27T20:53:46.903Z,0.40
2023-03-27T20:56:15.457Z,0.75
2023-03-27T20:58:44.564Z,0.68
2023-03-27T21:01:12.779Z,2.22
2023-03-27T21:03:42.886Z,1.42
2023-03-27T21:06:14.404Z,1.27
2023-03-27T21:08:43.806Z,1.42
2023-03-27T21:11:11.849Z,1.15
2023-03-27T21:13:39.804Z,1.10
2023-03-27T21:16:09.369Z,1.33
2023-03-27T21:18:37.316Z,2.03
2023-03-27T21:21:05.868Z,1.55
2023-03-27T21:23:34.861Z,1.42
2023-03-27T21:26:04.394Z,1.00
2023-03-27T21:28:32.213Z,1.77
2023-03-27T21:31:05.679Z,1.98
2023-03-27T21:33:33.463Z,1.40
2023-03-27T21:36:02.123Z,1.65
2023-03-27T21:38:30.068Z,2.00
2023-03-27T21:40:57.715Z,1.52
2023-03-27T21:43:27.423Z,1.55
2023-03-27T21:45:55.756Z,0.65
2023-03-27T21:48:23.687Z,1.08
2023-03-27T21:50:51.414Z,2.75
2023-03-27T21:53:19.291Z,0.77
2023-03-27T21:55:47.368Z,0.60
2023-03-27T21:58:15.740Z,0.52
2023-03-27T22:00:47.283Z,0.55
2023-03-27T22:03:15.630Z,0.60
2023-03-27T22:05:49.127Z,1.08
2023-03-27T22:08:24.539Z,1.20
2023-03-27T22:11:01.726Z,0.85
2023-03-27T22:13:30.204Z,1.33
2023-03-27T22:16:00.312Z,1.23
2023-03-27T22:18:31.247Z,0.70
2023-03-27T22:20:59.648Z,0.47
2023-03-27T22:23:27.924Z,0.28
2023-03-27T22:25:58.203Z,0.63
2023-03-27T22:28:29.423Z,0.73
2023-03-27T22:30:59.582Z,0.47
2023-03-27T22:33:28.077Z,0.88
2023-03-27T22:35:56.294Z,1.33
2023-03-27T22:38:24.699Z,0.50
2023-03-27T22:40:52.846Z,0.95
2023-03-27T22:43:23.368Z,1.00
2023-03-27T22:45:52.822Z,0.40
2023-03-27T22:48:22.500Z,0.47
2023-03-27T22:50:55.748Z,0.65
2023-03-27T22:53:25.571Z,1.25
2023-03-27T22:55:56.366Z,0.93
2023-03-27T22:58:26.118Z,0.50
2023-03-27T23:00:55.779Z,0.60
2023-03-27T23:03:27.418Z,0.47
2023-03-27T23:05:56.020Z,2.45
2023-03-27T23:08:27.352Z,1.00
2023-03-27T23:11:05.228Z,3.03
2023-03-27T23:13:35.163Z,0.80
2023-03-27T23:16:03.232Z,1.33
2023-03-27T23:18:33.142Z,1.00
2023-03-27T23:21:02.973Z,1.15
2023-03-27T23:23:32.734Z,3.38
2023-03-27T23:26:01.408Z,1.30
2023-03-27T23:28:32.285Z,2.53
2023-03-27T23:31:02.761Z,2.95
2023-03-27T23:33:35.706Z,1.40
2023-03-27T23:36:06.897Z,2.83
2023-03-27T23:38:35.827Z,1.88
2023-03-27T23:41:05.111Z,2.35
2023-03-27T23:43:34.161Z,1.30
2023-03-27T23:46:02.867Z,0.65
2023-03-27T23:48:33.110Z,0.88
2023-03-27T23:51:01.513Z,1.50
2023-03-27T23:53:30.007Z,1.27
2023-03-27T23:55:59.628Z,1.27
2023-03-27T23:58:32.670Z,1.23
